createdAt,value
2023-03-17T00:00:56.592Z,17.48
2023-03-17T00:02:59.805Z,20.58
2023-03-17T00:05:01.566Z,19.17
2023-03-17T00:07:03.184Z,20.10
2023-03-17T00:09:04.772Z,20.88
2023-03-17T00:11:10.589Z,21.67
2023-03-17T00:13:12.837Z,20.30
2023-03-17T00:15:15.051Z,21.15
2023-03-17T00:17:16.598Z,34.83
2023-03-17T00:19:26.492Z,30.13
2023-03-17T00:21:34.151Z,38.42
2023-03-17T00:23:36.403Z,31.98
2023-03-17T00:25:43.076Z,35.38
2023-03-17T00:27:44.618Z,40.75
2023-03-17T00:29:47.054Z,30.05
2023-03-17T00:31:49.414Z,24.88
2023-03-17T00:33:53.978Z,21.27
2023-03-17T00:35:57.458Z,19.40
2023-03-17T00:37:59.558Z,21.05
2023-03-17T00:40:01.664Z,19.75
2023-03-17T00:42:03.276Z,24.50
2023-03-17T00:44:04.970Z,34.75
2023-03-17T00:46:16.622Z,26.65
2023-03-17T00:48:21.058Z,21.90
2023-03-17T00:50:25.469Z,25.58
2023-03-17T00:52:27.531Z,29.80
2023-03-17T00:54:29.013Z,34.78
2023-03-17T00:56:31.089Z,29.38
2023-03-17T00:58:34.303Z,27.38
2023-03-17T01:00:36.949Z,31.23
2023-03-17T01:02:38.562Z,24.67
2023-03-17T01:04:41.888Z,22.10
2023-03-17T01:06:44.403Z,19.80
2023-03-17T01:08:46.602Z,21.80
2023-03-17T01:10:48.462Z,23.65
2023-03-17T01:12:51.134Z,20.25
2023-03-17T01:14:52.887Z,19.02
2023-03-17T01:16:55.293Z,19.05
2023-03-17T01:18:57.143Z,17.67
2023-03-17T01:20:58.685Z,20.88
2023-03-17T01:23:01.672Z,19.27
2023-03-17T01:25:05.044Z,20.20
2023-03-17T01:27:07.324Z,21.40
2023-03-17T01:29:08.916Z,22.17
2023-03-17T01:31:10.771Z,24.50
2023-03-17T01:33:14.774Z,32.45
2023-03-17T01:35:16.444Z,27.08
2023-03-17T01:37:17.963Z,30.55
2023-03-17T01:39:19.699Z,33.20
2023-03-17T01:41:21.208Z,32.35
2023-03-17T01:43:29.503Z,33.15
2023-03-17T01:46:09.636Z,33.40
2023-03-17T01:48:11.749Z,32.08
2023-03-17T01:50:13.322Z,33.10
2023-03-17T01:52:21.795Z,33.25
2023-03-17T01:54:29.750Z,28.25
2023-03-17T01:56:31.549Z,28.30
2023-03-17T01:58:34.330Z,26.00
2023-03-17T02:00:35.874Z,36.42
2023-03-17T02:02:40.356Z,36.53
2023-03-17T02:04:42.125Z,44.20
2023-03-17T02:06:57.582Z,31.80
2023-03-17T02:09:01.621Z,34.28
2023-03-17T02:11:05.300Z,45.05
2023-03-17T02:13:07.970Z,32.28
2023-03-17T02:15:11.358Z,27.02
2023-03-17T02:17:12.968Z,37.10
2023-03-17T02:19:14.586Z,24.92
2023-03-17T02:21:56.960Z,25.63
2023-03-17T02:24:02.587Z,22.77
2023-03-17T02:26:05.180Z,25.52
2023-03-17T02:28:15.027Z,26.67
2023-03-17T02:30:20.601Z,25.20
2023-03-17T02:32:22.294Z,33.35
2023-03-17T02:34:23.814Z,39.90
2023-03-17T02:36:25.403Z,37.38
2023-03-17T02:38:27.138Z,33.97
2023-03-17T02:40:29.017Z,40.55
2023-03-17T02:42:30.691Z,28.50
2023-03-17T02:44:33.086Z,32.95
2023-03-17T02:46:34.920Z,35.78
2023-03-17T02:48:37.560Z,34.85
2023-03-17T02:50:39.442Z,37.92
2023-03-17T02:52:41.604Z,34.10
2023-03-17T02:54:43.146Z,33.55
2023-03-17T02:56:44.902Z,38.08
2023-03-17T02:58:46.520Z,37.22
2023-03-17T03:00:49.001Z,32.35
2023-03-17T03:02:50.589Z,27.98
2023-03-17T03:04:53.427Z,30.70
2023-03-17T03:06:55.094Z,35.42
2023-03-17T03:08:56.583Z,37.58
2023-03-17T03:10:58.203Z,40.53
2023-03-17T03:12:59.699Z,36.83
2023-03-17T03:15:01.233Z,36.35
2023-03-17T03:17:02.855Z,34.67
2023-03-17T03:19:05.690Z,33.78
2023-03-17T03:21:07.576Z,31.27
2023-03-17T03:23:09.173Z,35.10
2023-03-17T03:25:10.792Z,37.10
2023-03-17T03:27:12.429Z,38.03
2023-03-17T03:29:13.940Z,39.03
2023-03-17T03:31:16.258Z,37.58
2023-03-17T03:33:17.910Z,33.20
2023-03-17T03:35:19.489Z,30.80
2023-03-17T03:37:21.101Z,40.75
2023-03-17T03:39:22.670Z,40.40
2023-03-17T03:41:24.164Z,46.55
2023-03-17T03:43:25.782Z,39.25
2023-03-17T03:45:27.645Z,31.15
2023-03-17T03:47:29.176Z,28.05
2023-03-17T03:49:30.682Z,31.42
2023-03-17T03:51:32.203Z,49.15
2023-03-17T03:53:33.864Z,42.30
2023-03-17T03:55:35.644Z,38.35
2023-03-17T03:57:37.355Z,36.97
2023-03-17T03:59:39.128Z,31.63
2023-03-17T04:02:33.533Z,32.72
2023-03-17T04:05:27.965Z,28.90
2023-03-17T04:08:22.094Z,27.17
2023-03-17T04:11:16.704Z,29.67
2023-03-17T04:14:10.790Z,29.23
2023-03-17T04:17:05.311Z,32.25
2023-03-17T04:19:59.647Z,30.20
2023-03-17T04:22:53.859Z,33.75
2023-03-17T04:25:49.866Z,28.58
2023-03-17T04:28:44.000Z,36.03
2023-03-17T04:31:39.758Z,30.48
2023-03-17T04:34:33.863Z,30.35
2023-03-17T04:37:28.015Z,36.08
2023-03-17T04:40:22.214Z,31.02
2023-03-17T04:43:16.912Z,32.13
2023-03-17T04:46:11.146Z,30.48
2023-03-17T04:49:05.235Z,31.35
2023-03-17T04:51:59.295Z,31.63
2023-03-17T04:54:53.488Z,31.83
2023-03-17T04:57:47.583Z,35.47
2023-03-17T05:00:41.912Z,35.35
2023-03-17T05:03:53.965Z,35.88
2023-03-17T05:06:48.258Z,34.72
2023-03-17T05:09:42.645Z,31.73
2023-03-17T05:12:39.917Z,33.53
2023-03-17T05:15:34.072Z,46.45
2023-03-17T05:18:34.197Z,81.10
2023-03-17T05:21:33.907Z,56.13
2023-03-17T05:24:28.551Z,36.75
2023-03-17T05:27:34.732Z,40.00
2023-03-17T05:30:36.649Z,34.35
2023-03-17T05:33:30.749Z,32.85
2023-03-17T05:36:38.311Z,30.88
2023-03-17T05:39:43.020Z,32.03
2023-03-17T05:42:37.104Z,30.63
2023-03-17T05:45:40.338Z,30.25
2023-03-17T05:48:34.824Z,27.60
2023-03-17T05:51:28.899Z,25.80
2023-03-17T05:54:24.250Z,27.85
2023-03-17T05:57:18.313Z,25.75
2023-03-17T06:00:13.505Z,25.98
2023-03-17T06:03:07.987Z,29.35
2023-03-17T06:06:02.293Z,28.73
2023-03-17T06:08:56.592Z,28.92
2023-03-17T06:11:50.935Z,35.38
2023-03-17T06:14:48.554Z,29.48
2023-03-17T06:17:42.808Z,33.97
2023-03-17T06:20:37.261Z,25.13
2023-03-17T06:23:34.510Z,21.25
2023-03-17T06:26:28.818Z,23.00
2023-03-17T06:29:32.491Z,21.25
2023-03-17T06:32:23.623Z,21.88
2023-03-17T06:35:18.051Z,22.73
2023-03-17T06:38:13.537Z,25.38
2023-03-17T06:41:09.159Z,29.52
2023-03-17T06:44:05.412Z,24.70
2023-03-17T06:46:58.469Z,24.58
2023-03-17T06:49:01.381Z,20.90
2023-03-17T06:51:02.937Z,21.35
2023-03-17T06:53:05.107Z,20.92
2023-03-17T06:55:07.265Z,21.77
2023-03-17T06:57:09.689Z,22.77
2023-03-17T06:59:11.446Z,25.48
2023-03-17T07:01:14.598Z,27.67
2023-03-17T07:03:17.140Z,29.20
2023-03-17T07:05:18.994Z,35.17
2023-03-17T07:07:21.211Z,28.33
2023-03-17T07:09:23.241Z,23.95
2023-03-17T07:11:26.293Z,19.95
2023-03-17T07:13:28.128Z,24.13
2023-03-17T07:15:34.847Z,21.17
2023-03-17T07:17:36.501Z,19.23
2023-03-17T07:19:38.026Z,18.58
2023-03-17T07:21:39.540Z,17.23
2023-03-17T07:23:41.348Z,17.63
2023-03-17T07:25:43.776Z,17.95
2023-03-17T07:27:45.895Z,17.83
2023-03-17T07:29:47.401Z,18.17
2023-03-17T07:31:49.529Z,17.30
2023-03-17T07:33:51.867Z,14.27
2023-03-17T07:35:54.212Z,13.15
2023-03-17T07:37:55.910Z,16.90
2023-03-17T07:39:57.461Z,15.48
2023-03-17T07:41:59.204Z,15.20
2023-03-17T07:44:01.873Z,13.82
2023-03-17T07:46:06.314Z,11.13
2023-03-17T07:48:08.633Z,11.65
2023-03-17T07:50:11.042Z,9.60
2023-03-17T07:52:12.842Z,12.25
2023-03-17T07:54:15.174Z,10.88
2023-03-17T07:56:17.828Z,9.65
2023-03-17T07:58:20.512Z,10.98
2023-03-17T08:00:23.922Z,11.10
2023-03-17T08:02:26.292Z,7.90
2023-03-17T08:04:28.065Z,9.55
2023-03-17T08:06:30.163Z,8.23
2023-03-17T08:08:32.562Z,9.60
2023-03-17T08:10:34.895Z,7.70
2023-03-17T08:12:36.788Z,9.50
2023-03-17T08:14:38.318Z,9.63
2023-03-17T08:16:39.954Z,7.90
2023-03-17T08:18:41.798Z,9.07
2023-03-17T08:20:43.651Z,8.27
2023-03-17T08:22:45.457Z,7.22
2023-03-17T08:24:47.109Z,5.57
2023-03-17T08:26:49.396Z,5.88
2023-03-17T08:28:51.491Z,6.20
2023-03-17T08:30:53.184Z,7.50
2023-03-17T08:32:55.073Z,4.93
2023-03-17T08:34:56.643Z,11.15
2023-03-17T08:36:58.206Z,8.35
2023-03-17T08:38:59.811Z,13.05
2023-03-17T08:41:06.831Z,7.30
2023-03-17T08:43:09.003Z,12.52
2023-03-17T08:45:11.435Z,5.85
2023-03-17T08:47:13.047Z,3.45
2023-03-17T08:49:14.661Z,4.43
2023-03-17T08:51:18.974Z,4.80
2023-03-17T08:53:24.336Z,4.70
2023-03-17T08:55:25.880Z,4.25
2023-03-17T08:57:28.204Z,6.80
2023-03-17T08:59:29.843Z,3.97
2023-03-17T09:01:32.510Z,3.67
2023-03-17T09:03:34.302Z,4.40
2023-03-17T09:05:38.459Z,4.75
2023-03-17T09:07:41.420Z,3.95
2023-03-17T09:09:43.200Z,5.05
2023-03-17T09:11:44.744Z,4.38
2023-03-17T09:13:47.919Z,3.95
2023-03-17T09:15:56.598Z,4.45
2023-03-17T09:17:58.334Z,4.43
2023-03-17T09:19:59.921Z,4.53
2023-03-17T09:22:03.154Z,4.97
2023-03-17T09:24:04.774Z,3.63
2023-03-17T09:26:06.435Z,4.65
2023-03-17T09:28:10.739Z,4.07
2023-03-17T09:30:13.625Z,3.92
2023-03-17T09:32:16.148Z,3.50
2023-03-17T09:34:18.699Z,4.47
2023-03-17T09:36:24.373Z,5.05
2023-03-17T09:38:28.778Z,5.30
2023-03-17T09:40:33.833Z,4.32
2023-03-17T09:42:59.636Z,4.03
2023-03-17T09:45:42.982Z,5.15
2023-03-17T09:48:06.942Z,3.60
2023-03-17T09:50:56.215Z,5.72
2023-03-17T09:52:58.726Z,4.85
2023-03-17T09:55:03.619Z,3.55
2023-03-17T09:57:24.853Z,5.13
2023-03-17T09:59:52.303Z,4.88
2023-03-17T10:01:54.007Z,4.25
2023-03-17T10:03:55.848Z,4.40
2023-03-17T10:06:32.478Z,5.10
2023-03-17T10:08:38.780Z,3.05
2023-03-17T10:10:49.284Z,5.28
2023-03-17T10:13:32.425Z,4.72
2023-03-17T10:15:41.284Z,4.15
2023-03-17T10:17:43.118Z,4.47
2023-03-17T10:19:54.794Z,4.97
2023-03-17T10:22:01.761Z,4.80
2023-03-17T10:24:04.534Z,4.72
2023-03-17T10:26:25.029Z,4.13
2023-03-17T10:28:32.650Z,5.60
2023-03-17T10:30:35.500Z,4.53
2023-03-17T10:32:39.544Z,4.53
2023-03-17T10:34:42.946Z,4.68
2023-03-17T10:36:48.265Z,4.35
2023-03-17T10:38:54.374Z,5.18
2023-03-17T10:40:58.804Z,4.78
2023-03-17T10:43:08.649Z,4.88
2023-03-17T10:45:25.791Z,4.60
2023-03-17T10:47:38.161Z,4.50
2023-03-17T10:49:39.810Z,4.68
2023-03-17T10:51:46.620Z,5.63
2023-03-17T10:53:53.903Z,4.28
2023-03-17T10:56:09.073Z,7.70
2023-03-17T10:58:20.349Z,5.03
2023-03-17T11:00:23.342Z,4.72
2023-03-17T11:02:29.392Z,5.63
2023-03-17T11:04:39.028Z,5.65
2023-03-17T11:06:44.296Z,5.90
2023-03-17T11:08:53.855Z,4.85
2023-03-17T11:10:59.450Z,4.90
2023-03-17T11:13:02.856Z,5.65
2023-03-17T11:15:07.936Z,4.85
2023-03-17T11:17:19.072Z,5.30
2023-03-17T11:19:31.369Z,5.53
2023-03-17T11:21:47.810Z,4.82
2023-03-17T11:23:57.956Z,5.05
2023-03-17T11:26:21.360Z,5.30
2023-03-17T11:28:31.140Z,4.80
2023-03-17T11:30:36.987Z,5.45
2023-03-17T11:32:56.508Z,4.55
2023-03-17T11:35:23.985Z,6.80
2023-03-17T11:37:59.900Z,5.65
2023-03-17T11:40:07.868Z,5.53
2023-03-17T11:42:34.772Z,5.63
2023-03-17T11:44:49.082Z,5.13
2023-03-17T11:47:22.429Z,4.13
2023-03-17T11:49:37.766Z,5.60
2023-03-17T11:52:05.057Z,4.50
2023-03-17T11:54:17.611Z,6.13
2023-03-17T11:56:24.941Z,5.75
2023-03-17T11:58:35.604Z,5.65
2023-03-17T12:00:45.544Z,5.10
2023-03-17T12:05:11.993Z,4.75
2023-03-17T12:07:24.725Z,6.10
2023-03-17T12:09:42.328Z,6.55
2023-03-17T12:11:49.999Z,4.05
2023-03-17T12:13:59.953Z,5.25
2023-03-17T12:18:54.493Z,3.65
2023-03-17T12:21:25.667Z,5.05
2023-03-17T12:23:45.992Z,6.10
2023-03-17T12:25:55.077Z,5.03
2023-03-17T12:28:16.156Z,5.25
2023-03-17T12:30:27.983Z,6.20
2023-03-17T12:32:38.645Z,4.97
2023-03-17T12:35:02.927Z,5.53
2023-03-17T12:37:04.574Z,6.13
2023-03-17T12:39:14.594Z,7.60
2023-03-17T12:41:56.958Z,12.90
2023-03-17T12:44:08.078Z,5.22
2023-03-17T12:46:23.153Z,5.50
2023-03-17T12:49:02.252Z,5.85
2023-03-17T12:51:36.738Z,5.90
2023-03-17T12:53:46.544Z,10.25
2023-03-17T12:55:51.701Z,12.38
2023-03-17T12:58:03.863Z,11.70
2023-03-17T13:00:25.508Z,5.28
2023-03-17T13:02:30.392Z,7.10
2023-03-17T13:04:37.849Z,4.45
2023-03-17T13:06:46.601Z,9.13
2023-03-17T13:08:50.392Z,5.10
2023-03-17T13:11:30.847Z,5.53
2023-03-17T13:13:46.804Z,3.97
2023-03-17T13:15:54.377Z,5.20
2023-03-17T13:18:34.109Z,4.80
2023-03-17T13:20:42.565Z,4.35
2023-03-17T13:23:16.550Z,4.28
2023-03-17T13:25:57.783Z,4.10
2023-03-17T13:28:21.141Z,4.93
2023-03-17T13:30:22.954Z,5.55
2023-03-17T13:32:24.812Z,6.55
2023-03-17T13:34:28.907Z,5.07
2023-03-17T13:36:33.619Z,4.65
2023-03-17T13:38:35.522Z,4.20
2023-03-17T13:40:52.007Z,4.50
2023-03-17T13:43:09.588Z,6.38
2023-03-17T13:45:34.097Z,6.57
2023-03-17T13:47:42.508Z,3.90
2023-03-17T13:49:50.927Z,3.30
2023-03-17T13:52:03.541Z,5.63
2023-03-17T13:54:20.032Z,6.60
2023-03-17T13:56:26.379Z,5.47
2023-03-17T13:58:33.522Z,4.30
2023-03-17T14:00:38.069Z,4.43
2023-03-17T14:02:40.842Z,6.20
2023-03-17T14:04:53.532Z,5.85
2023-03-17T14:06:59.448Z,5.38
2023-03-17T14:09:08.302Z,9.93
2023-03-17T14:11:24.096Z,4.07
2023-03-17T14:13:29.944Z,4.25
2023-03-17T14:15:46.311Z,4.75
2023-03-17T14:17:53.515Z,6.00
2023-03-17T14:20:19.686Z,6.80
2023-03-17T14:22:23.964Z,5.40
2023-03-17T14:24:35.199Z,4.50
2023-03-17T14:26:36.819Z,4.18
2023-03-17T14:28:38.425Z,4.22
2023-03-17T14:30:40.285Z,8.50
2023-03-17T14:32:48.104Z,21.77
2023-03-17T14:34:58.535Z,10.88
2023-03-17T14:37:03.071Z,5.30
2023-03-17T14:39:04.867Z,6.93
2023-03-17T14:41:13.737Z,7.15
2023-03-17T14:43:16.269Z,9.88
2023-03-17T14:45:28.237Z,5.95
2023-03-17T14:47:37.291Z,8.93
2023-03-17T14:49:39.452Z,9.70
2023-03-17T14:51:42.258Z,23.52
2023-03-17T14:53:46.741Z,20.80
2023-03-17T14:55:48.678Z,40.45
2023-03-17T14:57:52.359Z,47.17
2023-03-17T15:00:01.466Z,10.20
2023-03-17T15:02:20.980Z,26.92
2023-03-17T15:04:34.407Z,21.88
2023-03-17T15:06:37.554Z,32.45
2023-03-17T15:08:41.476Z,23.15
2023-03-17T15:10:44.223Z,8.38
2023-03-17T15:12:46.900Z,14.27
2023-03-17T15:14:52.151Z,19.63
2023-03-17T15:16:55.271Z,23.20
2023-03-17T15:19:19.967Z,12.57
2023-03-17T15:21:32.987Z,39.55
2023-03-17T15:23:39.787Z,27.00
2023-03-17T15:25:47.109Z,44.72
2023-03-17T15:27:49.372Z,45.38
2023-03-17T15:29:51.400Z,35.35
2023-03-17T15:31:53.128Z,49.70
2023-03-17T15:33:57.251Z,8.07
2023-03-17T15:36:01.935Z,12.60
2023-03-17T15:38:04.477Z,5.32
2023-03-17T15:40:06.887Z,14.80
2023-03-17T15:42:11.491Z,9.38
2023-03-17T15:44:13.093Z,63.67
2023-03-17T15:46:24.893Z,16.05
2023-03-17T15:48:29.985Z,50.85
2023-03-17T15:50:33.232Z,49.58
2023-03-17T15:52:35.625Z,20.73
2023-03-17T15:54:37.582Z,113.35
2023-03-17T15:56:39.757Z,28.20
2023-03-17T15:58:41.412Z,44.08
2023-03-17T16:00:44.215Z,65.78
2023-03-17T16:02:50.936Z,34.10
2023-03-17T16:04:53.188Z,12.73
2023-03-17T16:06:54.784Z,12.15
2023-03-17T16:08:56.383Z,47.20
2023-03-17T16:10:59.040Z,16.73
2023-03-17T16:13:00.663Z,13.95
2023-03-17T16:15:10.349Z,23.23
2023-03-17T16:17:28.877Z,22.52
2023-03-17T16:19:30.743Z,111.88
2023-03-17T16:21:32.491Z,39.17
2023-03-17T16:23:37.318Z,47.15
2023-03-17T16:25:39.370Z,18.80
2023-03-17T16:27:40.980Z,25.95
2023-03-17T16:29:43.027Z,29.05
2023-03-17T16:31:49.039Z,29.08
2023-03-17T16:33:52.979Z,37.90
2023-03-17T16:35:55.885Z,26.05
2023-03-17T16:37:57.547Z,52.15
2023-03-17T16:39:59.427Z,33.63
2023-03-17T16:42:01.177Z,32.75
2023-03-17T16:44:03.291Z,46.95
2023-03-17T16:46:07.221Z,26.73
2023-03-17T16:48:13.159Z,38.53
2023-03-17T16:50:20.342Z,63.40
2023-03-17T16:52:21.886Z,56.45
2023-03-17T16:54:23.467Z,47.08
2023-03-17T16:56:27.060Z,43.78
2023-03-17T16:58:36.918Z,44.00
2023-03-17T17:02:39.909Z,34.47
2023-03-17T17:04:41.442Z,42.70
2023-03-17T17:06:42.965Z,46.60
2023-03-17T17:08:45.805Z,29.92
2023-03-17T17:10:47.335Z,24.73
2023-03-17T17:12:49.436Z,23.20
2023-03-17T17:14:51.048Z,29.00
2023-03-17T17:16:52.601Z,27.50
2023-03-17T17:18:54.701Z,26.90
2023-03-17T17:20:56.828Z,36.88
2023-03-17T17:22:59.747Z,27.77
2023-03-17T17:25:01.245Z,16.30
2023-03-17T17:27:02.895Z,35.35
2023-03-17T17:29:04.488Z,24.23
2023-03-17T17:31:07.813Z,14.35
2023-03-17T17:33:09.412Z,10.23
2023-03-17T17:35:11.838Z,10.05
2023-03-17T17:37:13.441Z,21.23
2023-03-17T17:39:15.195Z,18.42
2023-03-17T17:41:17.117Z,19.73
2023-03-17T17:43:19.267Z,23.42
2023-03-17T17:45:21.712Z,19.40
2023-03-17T17:47:23.290Z,81.63
2023-03-17T17:49:24.834Z,48.67
2023-03-17T17:51:28.336Z,26.60
2023-03-17T17:53:29.896Z,19.58
2023-03-17T17:55:33.415Z,74.32
2023-03-17T17:57:34.896Z,134.88
2023-03-17T17:59:36.445Z,44.15
2023-03-17T18:01:38.873Z,20.55
2023-03-17T18:03:42.955Z,13.40
2023-03-17T18:05:44.633Z,85.53
2023-03-17T18:07:46.191Z,26.40
2023-03-17T18:09:47.731Z,25.30
2023-03-17T18:11:49.354Z,45.90
2023-03-17T18:13:51.265Z,43.28
2023-03-17T18:15:53.012Z,24.52
2023-03-17T18:17:54.914Z,28.50
2023-03-17T18:19:56.639Z,34.25
2023-03-17T18:21:58.220Z,40.35
2023-03-17T18:23:59.860Z,109.18
2023-03-17T18:26:02.672Z,78.13
2023-03-17T18:28:04.592Z,48.08
2023-03-17T18:30:09.121Z,68.25
2023-03-17T18:32:12.286Z,35.63
2023-03-17T18:34:21.882Z,42.50
2023-03-17T18:36:24.403Z,35.45
2023-03-17T18:38:26.112Z,73.30
2023-03-17T18:40:27.673Z,44.95
2023-03-17T18:42:29.184Z,37.42
2023-03-17T18:44:30.807Z,35.47
2023-03-17T18:46:32.907Z,35.17
2023-03-17T18:48:36.187Z,39.42
2023-03-17T18:50:37.796Z,58.38
2023-03-17T18:52:41.482Z,34.65
2023-03-17T18:54:42.983Z,49.85
2023-03-17T18:56:44.518Z,35.20
2023-03-17T18:58:46.240Z,28.27
2023-03-17T19:00:49.164Z,39.22
2023-03-17T19:02:50.856Z,39.33
2023-03-17T19:04:52.502Z,35.05
2023-03-17T19:06:54.154Z,24.50
2023-03-17T19:08:56.302Z,36.88
2023-03-17T19:10:57.819Z,22.33
2023-03-17T19:12:59.823Z,25.08
2023-03-17T19:15:01.771Z,52.53
2023-03-17T19:17:03.877Z,24.17
2023-03-17T19:19:05.495Z,13.35
2023-03-17T19:21:08.504Z,15.98
2023-03-17T19:23:11.074Z,26.92
2023-03-17T19:25:12.765Z,21.23
2023-03-17T19:27:14.332Z,19.50
2023-03-17T19:29:16.716Z,19.02
2023-03-17T19:31:18.304Z,17.00
2023-03-17T19:33:19.870Z,16.67
2023-03-17T19:35:22.240Z,36.42
2023-03-17T19:37:23.790Z,39.45
2023-03-17T19:39:26.008Z,26.17
2023-03-17T19:41:27.797Z,25.85
2023-03-17T19:43:40.258Z,17.60
2023-03-17T19:45:42.755Z,18.48
2023-03-17T19:47:44.366Z,22.30
2023-03-17T19:49:45.994Z,23.33
2023-03-17T19:51:47.557Z,14.20
2023-03-17T19:53:49.349Z,11.50
2023-03-17T19:55:51.138Z,11.65
2023-03-17T19:57:53.241Z,20.63
2023-03-17T19:59:54.873Z,18.25
2023-03-17T20:01:56.888Z,17.65
2023-03-17T20:03:59.465Z,21.42
2023-03-17T20:06:06.217Z,27.15
2023-03-17T20:08:07.972Z,60.08
2023-03-17T20:10:10.855Z,10.30
2023-03-17T20:12:12.368Z,16.33
2023-03-17T20:14:14.084Z,15.13
2023-03-17T20:16:16.569Z,12.57
2023-03-17T20:18:19.006Z,14.65
2023-03-17T20:20:20.510Z,14.60
2023-03-17T20:22:22.051Z,15.77
2023-03-17T20:24:23.679Z,31.58
2023-03-17T20:26:25.615Z,14.07
2023-03-17T20:28:29.902Z,12.40
2023-03-17T20:30:32.283Z,12.27
2023-03-17T20:32:35.549Z,23.20
2023-03-17T20:34:37.821Z,13.77
2023-03-17T20:36:42.459Z,13.05
2023-03-17T20:38:44.463Z,12.48
2023-03-17T20:40:46.029Z,11.40
2023-03-17T20:42:47.539Z,10.27
2023-03-17T20:44:52.917Z,10.88
2023-03-17T20:46:54.944Z,13.60
2023-03-17T20:48:58.906Z,13.32
2023-03-17T20:51:00.836Z,9.93
2023-03-17T20:53:02.719Z,16.58
2023-03-17T20:55:06.011Z,24.92
2023-03-17T20:57:14.077Z,27.67
2023-03-17T20:59:15.585Z,20.13
2023-03-17T21:01:20.785Z,13.23
2023-03-17T21:03:22.630Z,11.52
2023-03-17T21:05:26.039Z,11.45
2023-03-17T21:07:27.852Z,11.60
2023-03-17T21:09:29.726Z,11.50
2023-03-17T21:11:31.278Z,10.23
2023-03-17T21:13:33.096Z,9.60
2023-03-17T21:15:34.594Z,8.50
2023-03-17T21:17:38.708Z,10.55
2023-03-17T21:19:40.646Z,12.93
2023-03-17T21:21:42.244Z,17.80
2023-03-17T21:23:44.673Z,18.95
2023-03-17T21:25:46.488Z,14.63
2023-03-17T21:27:48.959Z,15.15
2023-03-17T21:29:51.271Z,12.55
2023-03-17T21:31:53.002Z,9.70
2023-03-17T21:33:54.678Z,8.23
2023-03-17T21:35:58.685Z,11.60
2023-03-17T21:38:01.527Z,10.57
2023-03-17T21:40:05.128Z,10.63
2023-03-17T21:42:08.910Z,10.38
2023-03-17T21:44:13.436Z,12.77
2023-03-17T21:46:15.494Z,11.98
2023-03-17T21:48:17.651Z,10.90
2023-03-17T21:50:20.412Z,12.40
2023-03-17T21:52:22.072Z,19.38
2023-03-17T21:54:24.436Z,18.52
2023-03-17T21:56:26.110Z,15.80
2023-03-17T21:58:28.068Z,11.30
2023-03-17T22:00:39.418Z,16.85
2023-03-17T22:02:46.747Z,12.40
2023-03-17T22:04:48.825Z,11.88
2023-03-17T22:06:51.844Z,10.30
2023-03-17T22:08:53.408Z,11.90
2023-03-17T22:10:55.041Z,11.32
2023-03-17T22:12:56.554Z,11.30
2023-03-17T22:14:58.382Z,11.82
2023-03-17T22:17:00.688Z,12.68
2023-03-17T22:19:02.286Z,12.10
2023-03-17T22:21:04.986Z,12.70
2023-03-17T22:23:06.615Z,12.20
2023-03-17T22:25:08.453Z,18.50
2023-03-17T22:27:10.009Z,16.08
2023-03-17T22:29:11.542Z,11.18
2023-03-17T22:31:19.733Z,13.75
2023-03-17T22:33:21.253Z,14.40
2023-03-17T22:35:24.958Z,13.88
2023-03-17T22:37:26.699Z,10.93
2023-03-17T22:39:28.315Z,24.27
2023-03-17T22:41:30.896Z,19.85
2023-03-17T22:43:32.740Z,10.40
2023-03-17T22:45:34.404Z,12.82
2023-03-17T22:47:36.047Z,16.15
2023-03-17T22:49:37.629Z,32.05
2023-03-17T22:51:41.343Z,36.78
2023-03-17T22:53:43.478Z,27.25
2023-03-17T22:55:45.339Z,18.80
2023-03-17T22:57:47.358Z,13.32
2023-03-17T22:59:49.233Z,10.85
2023-03-17T23:01:50.978Z,10.23
2023-03-17T23:03:55.268Z,9.57
2023-03-17T23:05:59.736Z,12.35
2023-03-17T23:08:01.353Z,13.02
2023-03-17T23:10:05.039Z,19.35
2023-03-17T23:12:07.800Z,18.13
2023-03-17T23:14:09.397Z,21.02
2023-03-17T23:16:11.255Z,20.50
2023-03-17T23:18:13.204Z,17.58
2023-03-17T23:20:15.485Z,16.80
2023-03-17T23:22:17.047Z,14.88
2023-03-17T23:24:18.696Z,14.30
2023-03-17T23:26:20.729Z,14.57
2023-03-17T23:28:22.292Z,12.68
2023-03-17T23:30:24.532Z,13.07
2023-03-17T23:32:26.212Z,10.93
2023-03-17T23:34:28.529Z,11.30
2023-03-17T23:36:30.249Z,14.45
2023-03-17T23:38:32.287Z,13.95
2023-03-17T23:40:34.480Z,13.57
2023-03-17T23:42:36.786Z,19.77
2023-03-17T23:44:38.417Z,13.63
2023-03-17T23:46:40.062Z,16.33
2023-03-17T23:48:42.948Z,15.63
2023-03-17T23:50:45.457Z,13.65
2023-03-17T23:52:48.084Z,14.57
2023-03-17T23:54:49.916Z,13.35
2023-03-17T23:56:52.771Z,14.88
2023-03-17T23:58:54.796Z,21.10
